Time;durP1;ratioP1;P1;durP2;ratioP2;P2;SDS_P1;SDS_P2;PMS_P1;PMS_P2;Temp;Humidity;BMP_temperature;BMP_pressure;BME280_temperature;BME280_humidity;BME280_pressure;Samples;Min_cycle;Max_cycle;Signal;HPM_P1;HPM_P2
2021/12/20 00:00:14;;;;;;;4.00;2.30;;;;;;;-0.89;84.30;99097.59;434458;1309;141500;-64
2021/12/20 00:10:21;;;;;;;3.00;2.10;;;;;;;-0.78;84.15;99093.04;435106;1312;141805;-63
2021/12/20 00:20:27;;;;;;;6.30;2.40;;;;;;;-0.68;83.94;99092.42;434512;1312;142043;-67
2021/12/20 00:30:33;;;;;;;7.10;2.30;;;;;;;-0.60;83.87;99094.80;434313;1311;141423;-67
2021/12/20 00:40:40;;;;;;;6.00;2.40;;;;;;;-0.54;83.70;99097.92;434016;1311;141406;-69
2021/12/20 00:50:46;;;;;;;2.50;2.00;;;;;;;-0.45;83.43;99105.92;432532;1311;141393;-67
2021/12/20 01:00:55;;;;;;;4.50;1.80;;;;;;;-0.39;83.30;99112.65;425933;1312;141639;-63
2021/12/20 01:11:01;;;;;;;3.90;2.40;;;;;;;-0.36;82.96;99105.85;427467;1311;140663;-64
2021/12/20 01:21:08;;;;;;;2.90;1.70;;;;;;;-0.36;82.43;99104.48;430006;1312;140658;-63
2021/12/20 01:31:13;;;;;;;;;;;;;;;-0.34;82.30;99101.17;434690;1311;140510;-64
2021/12/20 01:41:19;;;;;;;4.60;2.10;;;;;;;-0.33;82.12;99101.47;433986;1312;128069;-66
2021/12/20 01:51:45;;;;;;;4.80;1.50;;;;;;;-0.29;81.88;99100.01;434251;1311;141558;-64
2021/12/20 02:01:53;;;;;;;4.00;1.30;;;;;;;-0.27;81.42;99102.02;435093;1308;141284;-64
2021/12/20 02:11:59;;;;;;;3.40;1.20;;;;;;;-0.25;81.25;99104.02;432603;1311;141424;-64
2021/12/20 02:22:06;;;;;;;2.80;1.40;;;;;;;-0.24;81.11;99096.96;435180;1298;140859;-65
2021/12/20 02:42:41;;;;;;;1.60;1.00;;;;;;;-0.24;81.07;99100.21;434628;1309;140607;-64
2021/12/20 02:52:47;;;;;;;3.30;1.80;;;;;;;-0.25;81.16;99104.20;435282;1309;140871;-64
2021/12/20 03:02:54;;;;;;;3.20;1.10;;;;;;;-0.24;81.02;99101.27;421729;1310;141263;-64
2021/12/20 03:13:00;;;;;;;1.40;1.10;;;;;;;-0.30;81.08;99103.45;419604;1309;140488;-63
2021/12/20 03:23:06;;;;;;;0.80;0.80;;;;;;;-0.32;81.23;99120.36;419832;1299;140794;-62
2021/12/20 03:33:15;;;;;;;2.70;1.40;;;;;;;-0.31;81.39;99119.66;419394;1310;141189;-63
2021/12/20 03:43:24;;;;;;;2.40;1.30;;;;;;;-0.33;81.69;99120.77;429726;1309;144113;-64
2021/12/20 03:53:33;;;;;;;2.20;1.10;;;;;;;-0.34;81.93;99127.84;420039;1311;142123;-63
2021/12/20 04:03:39;;;;;;;1.50;1.20;;;;;;;-0.38;82.20;99132.39;419840;1309;140253;-63
2021/12/20 04:13:46;;;;;;;1.80;1.00;;;;;;;-0.42;82.13;99131.63;420224;1309;140647;-64
2021/12/20 04:23:52;;;;;;;1.50;0.70;;;;;;;-0.47;82.30;99125.75;420009;1312;140425;-64
2021/12/20 04:33:58;;;;;;;2.90;0.90;;;;;;;-0.49;82.62;99135.96;420300;1311;140264;-63
2021/12/20 04:44:05;;;;;;;1.00;0.60;;;;;;;-0.49;82.70;99136.98;420415;1310;140885;-64
2021/12/20 04:54:11;;;;;;;1.90;0.90;;;;;;;-0.45;82.64;99143.25;420085;1310;142059;-64
2021/12/20 05:04:17;;;;;;;3.20;0.90;;;;;;;-0.42;82.71;99139.20;420548;1308;175115;-63
2021/12/20 05:14:23;;;;;;;4.50;1.50;;;;;;;-0.43;82.95;99148.19;420929;1311;140515;-62
2021/12/20 05:24:30;;;;;;;1.50;1.00;;;;;;;-0.39;82.92;99145.85;420126;1303;142056;-62
2021/12/20 05:34:37;;;;;;;1.50;0.90;;;;;;;-0.34;83.16;99147.96;426909;1309;142007;-63
2021/12/20 05:44:41;;;;;;;;;;;;;;;-0.30;83.02;99152.66;428875;1311;140103;-64
2021/12/20 05:54:48;;;;;;;2.40;1.30;;;;;;;-0.25;83.00;99160.62;420238;1311;126703;-61
2021/12/20 06:04:54;;;;;;;1.90;1.50;;;;;;;-0.24;83.39;99166.46;435440;1310;140400;-62
2021/12/20 06:15:00;;;;;;;2.00;1.70;;;;;;;-0.34;83.76;99180.46;434302;1309;140886;-62
2021/12/20 06:25:07;;;;;;;3.20;1.80;;;;;;;-0.42;84.24;99190.29;435522;1309;141975;-62
2021/12/20 06:35:13;;;;;;;;;;;;;;;-0.46;84.55;99200.70;425700;1312;141013;-61
2021/12/20 06:45:19;;;;;;;1.50;1.20;;;;;;;-0.48;84.86;99212.80;420321;1309;126772;-61
2021/12/20 06:55:26;;;;;;;3.20;2.30;;;;;;;-0.43;84.62;99214.89;419524;1312;140661;-63
2021/12/20 07:05:32;;;;;;;6.40;2.80;;;;;;;-0.35;84.45;99232.61;420145;1309;140817;-61
2021/12/20 07:15:38;;;;;;;4.80;3.40;;;;;;;-0.33;84.71;99241.67;419505;1309;141013;-61
2021/12/20 07:25:45;;;;;;;5.00;2.50;;;;;;;-0.36;84.73;99247.59;420645;1311;139993;-62
2021/12/20 07:35:52;;;;;;;3.60;3.10;;;;;;;-0.40;85.07;99256.80;432780;1308;140900;-62
2021/12/20 07:45:58;;;;;;;9.60;3.10;;;;;;;-0.38;85.28;99264.83;426792;1312;141229;-63
2021/12/20 07:56:05;;;;;;;4.30;3.30;;;;;;;-0.32;85.32;99269.69;420209;1311;144685;-73
2021/12/20 08:06:12;;;;;;;5.80;2.90;;;;;;;-0.30;85.18;99283.55;421251;1311;140077;-66
2021/12/20 08:16:20;;;;;;;3.40;3.00;;;;;;;-0.24;85.26;99290.13;419117;1309;141314;-67
2021/12/20 08:26:27;;;;;;;3.70;3.00;;;;;;;-0.17;84.89;99292.55;430861;1312;141756;-72
2021/12/20 08:36:36;;;;;;;2.30;2.00;;;;;;;-0.04;84.41;99297.90;426790;1308;141127;-63
2021/12/20 08:46:42;;;;;;;4.00;2.70;;;;;;;0.18;84.10;99303.71;427013;1308;142319;-63
2021/12/20 08:56:48;;;;;;;2.60;2.40;;;;;;;0.40;83.69;99310.91;432567;1311;142139;-64
2021/12/20 09:06:54;;;;;;;5.00;3.20;;;;;;;0.49;83.46;99321.16;434458;1311;141057;-66
2021/12/20 09:17:00;;;;;;;3.90;1.90;;;;;;;0.44;82.99;99325.95;433832;1311;141811;-66
2021/12/20 09:27:08;;;;;;;3.00;1.90;;;;;;;0.40;82.78;99324.33;434423;1311;142133;-65
2021/12/20 09:37:14;;;;;;;3.20;1.90;;;;;;;0.31;82.44;99333.48;423901;1311;141729;-67
2021/12/20 09:47:22;;;;;;;5.40;2.90;;;;;;;0.25;82.17;99339.00;435040;1312;140893;-65
2021/12/20 09:57:31;;;;;;;4.50;2.70;;;;;;;0.30;82.23;99347.65;433145;1311;200194;-62
2021/12/20 10:07:35;;;;;;;;;;;;;;;0.60;82.04;99350.50;434928;1311;141165;-65
2021/12/20 10:17:55;;;;;;;5.30;3.60;;;;;;;0.74;81.61;99355.45;435623;1307;127511;-69
2021/12/20 10:28:10;;;;;;;2.60;2.40;;;;;;;0.72;81.07;99350.88;425066;1312;144330;-69
2021/12/20 10:38:32;;;;;;;6.30;3.00;;;;;;;0.62;81.04;99352.16;435386;1310;142800;-73
2021/12/20 10:48:39;;;;;;;4.40;2.70;;;;;;;0.60;80.58;99356.52;434118;1308;141469;-67
2021/12/20 10:58:44;;;;;;;2.50;2.30;;;;;;;0.62;80.67;99353.88;433111;1312;142013;-63
2021/12/20 11:09:05;;;;;;;6.30;3.50;;;;;;;0.61;80.51;99348.05;435515;1310;142549;-67
2021/12/20 11:19:26;;;;;;;3.00;2.00;;;;;;;0.60;80.09;99353.77;430647;1311;141642;-66
2021/12/20 11:29:32;;;;;;;3.80;2.10;;;;;;;0.59;79.83;99363.26;435451;1311;141588;-63
2021/12/20 11:39:39;;;;;;;6.40;2.80;;;;;;;0.70;79.09;99370.56;434671;1309;143928;-66
2021/12/20 11:49:44;;;;;;;4.40;2.40;;;;;;;0.74;78.32;99370.10;434981;1311;142026;-65
2021/12/20 11:59:53;;;;;;;3.00;1.90;;;;;;;0.70;78.14;99374.70;433400;1315;141922;-63
2021/12/20 12:10:01;;;;;;;4.60;2.00;;;;;;;0.64;77.89;99378.97;435423;1315;142439;-63
2021/12/20 12:20:11;;;;;;;2.70;1.90;;;;;;;0.59;77.81;99391.70;434086;1311;141406;-66
2021/12/20 12:30:36;;;;;;;3.00;2.10;;;;;;;0.51;77.30;99403.42;434345;1311;141801;-60
2021/12/20 12:40:42;;;;;;;3.60;2.20;;;;;;;0.51;76.63;99415.66;435188;1311;142004;-65
2021/12/20 12:50:48;;;;;;;3.70;1.60;;;;;;;0.55;76.73;99425.90;435085;1309;141986;-63
2021/12/20 13:01:01;;;;;;;3.10;2.40;;;;;;;0.49;76.52;99432.41;432546;1311;2371101;-61
2021/12/20 13:11:22;;;;;;;4.00;2.40;;;;;;;0.50;76.35;99439.29;435256;1311;142858;-64
2021/12/20 13:21:47;;;;;;;5.70;2.90;;;;;;;0.48;76.03;99451.22;433326;1311;142328;-72
2021/12/20 13:32:03;;;;;;;3.80;2.30;;;;;;;0.40;75.90;99457.79;432416;1306;141329;-71
2021/12/20 13:42:11;;;;;;;4.60;3.30;;;;;;;0.25;76.84;99466.73;432054;1311;142011;-60
2021/12/20 13:52:17;;;;;;;5.30;2.90;;;;;;;0.13;77.27;99480.80;435237;1310;145262;-69
2021/12/20 14:02:26;;;;;;;4.10;2.50;;;;;;;0.09;76.53;99486.40;435086;1308;140602;-61
2021/12/20 14:12:39;;;;;;;3.90;1.90;;;;;;;0.08;75.97;99495.38;432566;1310;141925;-65
2021/12/20 14:22:59;;;;;;;3.40;2.30;;;;;;;0.06;75.81;99506.95;420427;1309;141237;-64
2021/12/20 14:33:26;;;;;;;3.60;1.90;;;;;;;-0.04;76.55;99525.06;434344;1309;144391;-64
2021/12/20 14:43:35;;;;;;;6.00;1.90;;;;;;;-0.35;76.46;99578.83;434036;1311;143379;-66
2021/12/20 14:53:41;;;;;;;3.50;3.10;;;;;;;-1.56;78.33;99605.58;430536;1312;141758;-67
2021/12/20 15:03:47;;;;;;;6.10;3.80;;;;;;;-2.16;79.82;99623.67;430698;1311;142276;-68
2021/12/20 15:13:53;;;;;;;3.60;3.30;;;;;;;-2.35;80.26;99631.43;422400;1310;142234;-66
2021/12/20 15:24:01;;;;;;;5.90;3.60;;;;;;;-2.37;80.72;99633.85;433173;1309;143238;-63
2021/12/20 15:34:08;;;;;;;10.80;4.20;;;;;;;-2.44;80.69;99641.63;433855;1310;143089;-67
2021/12/20 15:44:14;;;;;;;5.90;3.90;;;;;;;-2.45;80.52;99656.38;434473;1311;143408;-65
2021/12/20 15:54:19;;;;;;;5.30;4.00;;;;;;;-2.39;79.98;99664.05;430752;1311;141574;-62
2021/12/20 16:04:25;;;;;;;5.40;3.90;;;;;;;-2.40;78.79;99675.36;435335;1312;186731;-64
2021/12/20 16:14:31;;;;;;;6.20;3.70;;;;;;;-2.49;78.07;99698.08;426687;1309;142393;-62
2021/12/20 16:24:37;;;;;;;5.60;3.50;;;;;;;-2.58;76.86;99706.72;418060;1311;141734;-62
2021/12/20 16:34:43;;;;;;;5.20;3.30;;;;;;;-2.70;75.91;99726.19;426813;1310;141516;-66
2021/12/20 16:44:52;;;;;;;2.90;2.40;;;;;;;-2.78;75.19;99729.50;435179;1308;141920;-65
2021/12/20 16:54:58;;;;;;;2.80;2.30;;;;;;;-2.91;74.42;99739.70;434097;1310;141958;-64
2021/12/20 17:05:07;;;;;;;;;;;;;;;-2.99;74.53;99745.06;435217;1308;142397;-69
2021/12/20 17:15:13;;;;;;;5.60;3.50;;;;;;;-3.07;74.94;99756.06;434862;1310;129580;-63
2021/12/20 17:25:18;;;;;;;7.10;4.70;;;;;;;-3.20;75.65;99761.61;435310;1308;144320;-63
2021/12/20 17:35:24;;;;;;;7.80;4.60;;;;;;;-3.21;76.70;99779.60;433772;1309;145703;-62
2021/12/20 17:45:30;;;;;;;7.10;5.10;;;;;;;-2.90;77.66;99797.42;432254;1308;145100;-62
2021/12/20 17:55:36;;;;;;;9.50;4.10;;;;;;;-2.63;77.80;99803.43;435710;1309;141292;-61
2021/12/20 18:05:43;;;;;;;8.10;4.90;;;;;;;-2.41;77.83;99804.84;430969;1309;141863;-62
2021/12/20 18:15:49;;;;;;;11.90;5.90;;;;;;;-2.30;77.91;99816.92;434923;1308;143069;-61
2021/12/20 18:25:55;;;;;;;8.90;5.20;;;;;;;-2.20;78.27;99826.46;435613;1307;142641;-61
2021/12/20 18:36:00;;;;;;;7.00;4.00;;;;;;;-2.10;78.59;99831.52;433258;1309;142581;-61
2021/12/20 18:46:08;;;;;;;9.30;5.60;;;;;;;-2.10;78.83;99823.80;433916;1311;141890;-61
2021/12/20 18:56:14;;;;;;;7.60;4.50;;;;;;;-2.14;79.03;99841.48;435460;1310;142149;-62
2021/12/20 19:06:22;;;;;;;9.90;4.00;;;;;;;-2.10;79.24;99852.27;433532;1309;144757;-55
2021/12/20 19:16:28;;;;;;;5.00;3.40;;;;;;;-2.09;79.07;99862.39;435533;1309;142373;-59
2021/12/20 19:26:35;;;;;;;6.80;3.90;;;;;;;-2.19;78.87;99874.29;435395;1311;142264;-57
2021/12/20 19:36:41;;;;;;;5.60;4.00;;;;;;;-2.18;79.28;99884.59;434897;1309;145213;-58
2021/12/20 19:46:48;;;;;;;6.90;4.60;;;;;;;-2.13;79.23;99896.04;421533;1305;141773;-49
2021/12/20 19:56:55;;;;;;;5.30;3.70;;;;;;;-2.20;79.36;99902.42;424155;1309;142208;-52
2021/12/20 20:07:00;;;;;;;;;;;;;;;-2.42;79.29;99900.16;435115;1308;180638;-52
2021/12/20 20:17:06;;;;;;;4.80;3.80;;;;;;;-2.63;79.44;99903.55;434233;1309;128010;-56
2021/12/20 20:27:14;;;;;;;7.20;5.40;;;;;;;-2.64;80.01;99914.16;432239;1310;141589;-53
2021/12/20 20:37:20;;;;;;;7.80;6.40;;;;;;;-2.52;80.13;99914.46;430813;1310;142790;-59
2021/12/20 20:47:25;;;;;;;6.90;5.60;;;;;;;-2.49;80.30;99924.04;430470;1309;142044;-62
2021/12/20 20:57:32;;;;;;;9.10;5.40;;;;;;;-2.49;80.21;99923.52;427075;1309;156640;-60
2021/12/20 21:07:37;;;;;;;8.20;5.60;;;;;;;-2.54;79.74;99917.38;428637;1309;141276;-62
2021/12/20 21:17:44;;;;;;;6.60;5.20;;;;;;;-2.68;79.47;99924.80;418945;1312;141599;-61
2021/12/20 21:27:50;;;;;;;7.50;4.00;;;;;;;-2.77;79.40;99930.67;433584;1309;142348;-61
2021/12/20 21:37:56;;;;;;;14.30;8.50;;;;;;;-2.87;79.39;99933.27;435614;1309;141820;-61
2021/12/20 21:48:01;;;;;;;12.50;9.50;;;;;;;-2.82;79.39;99938.40;432424;1309;142577;-62
2021/12/20 21:58:08;;;;;;;10.80;5.70;;;;;;;-2.79;79.28;99934.63;433681;1309;141990;-60
2021/12/20 22:08:13;;;;;;;11.40;6.30;;;;;;;-2.83;79.10;99940.97;431738;1306;141375;-59
2021/12/20 22:18:21;;;;;;;11.00;7.50;;;;;;;-2.88;79.01;99940.83;433912;1312;141863;-59
2021/12/20 22:28:26;;;;;;;9.50;5.00;;;;;;;-2.88;79.01;99949.90;434386;1310;141855;-65
2021/12/20 22:38:32;;;;;;;13.00;7.10;;;;;;;-2.85;78.79;99956.92;435683;1309;141536;-66
2021/12/20 22:48:38;;;;;;;16.00;5.90;;;;;;;-2.77;78.98;99968.73;433967;1311;146045;-62
2021/12/20 22:58:44;;;;;;;11.20;6.90;;;;;;;-2.71;78.88;99968.52;435479;1309;144573;-62
2021/12/20 23:08:50;;;;;;;10.10;5.70;;;;;;;-2.71;78.75;99968.52;434870;1311;142528;-63
2021/12/20 23:18:59;;;;;;;10.70;5.40;;;;;;;-2.74;78.82;99973.51;422734;1309;141447;-63
2021/12/20 23:29:05;;;;;;;6.80;4.70;;;;;;;-2.77;79.03;99970.94;431211;1312;142024;-64
2021/12/20 23:39:15;;;;;;;11.00;4.90;;;;;;;-2.81;79.20;99969.41;434611;1309;143701;-66
2021/12/20 23:49:21;;;;;;;7.30;4.30;;;;;;;-2.87;79.35;99966.02;421235;1309;141819;-68
2021/12/20 23:59:26;;;;;;;8.40;3.90;;;;;;;-2.87;79.53;99969.25;435007;1310;142500;-68
